sensor_id;sensor_type;location;lat;lon;timestamp;P1;durP1;ratioP1;P2;durP2;ratioP2
71975;SDS011;68326;52.124;5.424;2023-11-18T00:00:55;13.70;;;6.55;;
71975;SDS011;68326;52.124;5.424;2023-11-18T00:03:21;16.57;;;6.93;;
71975;SDS011;68326;52.124;5.424;2023-11-18T00:05:48;15.85;;;6.68;;
71975;SDS011;68326;52.124;5.424;2023-11-18T00:08:14;14.75;;;6.28;;
71975;SDS011;68326;52.124;5.424;2023-11-18T00:10:41;21.80;;;7.38;;
71975;SDS011;68326;52.124;5.424;2023-11-18T00:13:07;13.90;;;6.65;;
71975;SDS011;68326;52.124;5.424;2023-11-18T00:15:35;15.30;;;6.73;;
71975;SDS011;68326;52.124;5.424;2023-11-18T00:18:02;17.08;;;6.55;;
71975;SDS011;68326;52.124;5.424;2023-11-18T00:20:28;13.80;;;6.70;;
71975;SDS011;68326;52.124;5.424;2023-11-18T00:22:57;15.13;;;6.60;;
71975;SDS011;68326;52.124;5.424;2023-11-18T00:25:24;17.17;;;7.25;;
71975;SDS011;68326;52.124;5.424;2023-11-18T00:27:50;18.77;;;7.57;;
71975;SDS011;68326;52.124;5.424;2023-11-18T00:30:17;17.17;;;7.55;;
71975;SDS011;68326;52.124;5.424;2023-11-18T00:32:43;21.45;;;8.38;;
71975;SDS011;68326;52.124;5.424;2023-11-18T00:35:10;20.77;;;7.15;;
71975;SDS011;68326;52.124;5.424;2023-11-18T00:37:37;16.20;;;6.97;;
71975;SDS011;68326;52.124;5.424;2023-11-18T00:40:03;24.17;;;6.50;;
71975;SDS011;68326;52.124;5.424;2023-11-18T00:42:30;15.60;;;6.60;;
71975;SDS011;68326;52.124;5.424;2023-11-18T00:44:57;30.77;;;7.45;;
71975;SDS011;68326;52.124;5.424;2023-11-18T00:47:23;18.17;;;6.50;;
71975;SDS011;68326;52.124;5.424;2023-11-18T00:49:50;21.33;;;6.60;;
71975;SDS011;68326;52.124;5.424;2023-11-18T00:52:18;17.10;;;6.33;;
71975;SDS011;68326;52.124;5.424;2023-11-18T00:54:45;18.50;;;6.28;;
71975;SDS011;68326;52.124;5.424;2023-11-18T00:57:12;12.02;;;5.93;;
71975;SDS011;68326;52.124;5.424;2023-11-18T00:59:41;11.57;;;5.53;;
71975;SDS011;68326;52.124;5.424;2023-11-18T01:02:09;17.35;;;7.80;;
71975;SDS011;68326;52.124;5.424;2023-11-18T01:04:35;10.70;;;5.53;;
71975;SDS011;68326;52.124;5.424;2023-11-18T01:07:02;13.75;;;6.30;;
71975;SDS011;68326;52.124;5.424;2023-11-18T01:09:29;13.68;;;6.35;;
71975;SDS011;68326;52.124;5.424;2023-11-18T01:11:55;13.95;;;6.03;;
71975;SDS011;68326;52.124;5.424;2023-11-18T01:14:34;14.27;;;6.38;;
71975;SDS011;68326;52.124;5.424;2023-11-18T01:17:00;14.73;;;5.80;;
71975;SDS011;68326;52.124;5.424;2023-11-18T01:19:27;15.38;;;5.90;;
71975;SDS011;68326;52.124;5.424;2023-11-18T01:21:54;12.23;;;5.25;;
71975;SDS011;68326;52.124;5.424;2023-11-18T01:24:21;10.73;;;5.30;;
71975;SDS011;68326;52.124;5.424;2023-11-18T01:26:48;9.38;;;5.00;;
71975;SDS011;68326;52.124;5.424;2023-11-18T01:29:14;10.37;;;4.70;;
71975;SDS011;68326;52.124;5.424;2023-11-18T01:31:41;10.43;;;4.72;;
71975;SDS011;68326;52.124;5.424;2023-11-18T01:34:18;11.20;;;5.45;;
71975;SDS011;68326;52.124;5.424;2023-11-18T01:36:48;11.25;;;5.15;;
71975;SDS011;68326;52.124;5.424;2023-11-18T01:39:18;14.45;;;6.72;;
71975;SDS011;68326;52.124;5.424;2023-11-18T01:41:45;16.47;;;7.30;;
71975;SDS011;68326;52.124;5.424;2023-11-18T01:44:12;17.40;;;7.57;;
71975;SDS011;68326;52.124;5.424;2023-11-18T01:46:41;15.35;;;7.13;;
71975;SDS011;68326;52.124;5.424;2023-11-18T01:49:11;18.52;;;6.88;;
71975;SDS011;68326;52.124;5.424;2023-11-18T01:51:42;14.25;;;6.57;;
71975;SDS011;68326;52.124;5.424;2023-11-18T01:54:11;15.23;;;6.70;;
71975;SDS011;68326;52.124;5.424;2023-11-18T01:56:43;22.45;;;7.18;;
71975;SDS011;68326;52.124;5.424;2023-11-18T01:59:10;15.57;;;7.13;;
71975;SDS011;68326;52.124;5.424;2023-11-18T02:01:53;16.77;;;7.15;;
71975;SDS011;68326;52.124;5.424;2023-11-18T02:04:20;14.07;;;6.88;;
71975;SDS011;68326;52.124;5.424;2023-11-18T02:06:48;19.23;;;8.03;;
71975;SDS011;68326;52.124;5.424;2023-11-18T02:09:16;16.40;;;6.55;;
71975;SDS011;68326;52.124;5.424;2023-11-18T02:11:57;18.65;;;7.70;;
71975;SDS011;68326;52.124;5.424;2023-11-18T02:14:36;19.48;;;7.03;;
71975;SDS011;68326;52.124;5.424;2023-11-18T02:17:05;16.92;;;7.55;;
71975;SDS011;68326;52.124;5.424;2023-11-18T02:19:37;18.03;;;7.97;;
71975;SDS011;68326;52.124;5.424;2023-11-18T02:22:06;18.73;;;8.23;;
71975;SDS011;68326;52.124;5.424;2023-11-18T02:24:33;17.77;;;7.70;;
71975;SDS011;68326;52.124;5.424;2023-11-18T02:27:03;22.45;;;9.02;;
71975;SDS011;68326;52.124;5.424;2023-11-18T02:29:39;22.13;;;9.65;;
71975;SDS011;68326;52.124;5.424;2023-11-18T02:34:48;18.65;;;7.97;;
71975;SDS011;68326;52.124;5.424;2023-11-18T02:37:32;18.40;;;8.05;;
71975;SDS011;68326;52.124;5.424;2023-11-18T02:40:08;19.10;;;8.48;;
71975;SDS011;68326;52.124;5.424;2023-11-18T02:42:41;17.27;;;7.85;;
71975;SDS011;68326;52.124;5.424;2023-11-18T02:45:10;18.57;;;7.77;;
71975;SDS011;68326;52.124;5.424;2023-11-18T02:47:43;19.85;;;8.55;;
71975;SDS011;68326;52.124;5.424;2023-11-18T02:50:11;20.40;;;8.55;;
71975;SDS011;68326;52.124;5.424;2023-11-18T02:52:40;22.70;;;9.18;;
71975;SDS011;68326;52.124;5.424;2023-11-18T02:55:06;20.80;;;8.82;;
71975;SDS011;68326;52.124;5.424;2023-11-18T02:57:35;20.80;;;9.27;;
71975;SDS011;68326;52.124;5.424;2023-11-18T03:00:05;20.75;;;9.55;;
71975;SDS011;68326;52.124;5.424;2023-11-18T03:02:37;21.95;;;9.98;;
71975;SDS011;68326;52.124;5.424;2023-11-18T03:05:06;22.02;;;9.88;;
71975;SDS011;68326;52.124;5.424;2023-11-18T03:07:33;23.48;;;10.07;;
71975;SDS011;68326;52.124;5.424;2023-11-18T03:10:00;23.97;;;10.10;;
71975;SDS011;68326;52.124;5.424;2023-11-18T03:12:27;27.70;;;10.93;;
71975;SDS011;68326;52.124;5.424;2023-11-18T03:14:54;23.15;;;10.55;;
71975;SDS011;68326;52.124;5.424;2023-11-18T03:17:21;20.38;;;9.85;;
71975;SDS011;68326;52.124;5.424;2023-11-18T03:19:48;22.77;;;10.45;;
71975;SDS011;68326;52.124;5.424;2023-11-18T03:22:16;18.73;;;9.33;;
71975;SDS011;68326;52.124;5.424;2023-11-18T03:24:43;29.70;;;11.60;;
71975;SDS011;68326;52.124;5.424;2023-11-18T03:27:09;26.10;;;9.88;;
71975;SDS011;68326;52.124;5.424;2023-11-18T03:29:36;21.38;;;9.43;;
71975;SDS011;68326;52.124;5.424;2023-11-18T03:32:02;21.55;;;10.20;;
71975;SDS011;68326;52.124;5.424;2023-11-18T03:34:31;22.70;;;10.00;;
71975;SDS011;68326;52.124;5.424;2023-11-18T03:36:58;22.17;;;9.15;;
71975;SDS011;68326;52.124;5.424;2023-11-18T03:39:25;23.17;;;9.73;;
71975;SDS011;68326;52.124;5.424;2023-11-18T03:41:53;24.17;;;9.75;;
71975;SDS011;68326;52.124;5.424;2023-11-18T03:44:20;22.75;;;9.50;;
71975;SDS011;68326;52.124;5.424;2023-11-18T03:46:46;26.03;;;10.47;;
71975;SDS011;68326;52.124;5.424;2023-11-18T03:49:13;22.83;;;10.35;;
71975;SDS011;68326;52.124;5.424;2023-11-18T03:51:39;24.25;;;10.55;;
71975;SDS011;68326;52.124;5.424;2023-11-18T03:54:06;21.38;;;9.20;;
71975;SDS011;68326;52.124;5.424;2023-11-18T03:56:34;21.02;;;10.05;;
71975;SDS011;68326;52.124;5.424;2023-11-18T03:59:01;19.63;;;9.40;;
71975;SDS011;68326;52.124;5.424;2023-11-18T04:01:30;23.27;;;9.80;;
71975;SDS011;68326;52.124;5.424;2023-11-18T04:03:58;22.23;;;9.73;;
71975;SDS011;68326;52.124;5.424;2023-11-18T04:06:25;21.90;;;9.70;;
71975;SDS011;68326;52.124;5.424;2023-11-18T04:08:52;21.50;;;9.95;;
71975;SDS011;68326;52.124;5.424;2023-11-18T04:11:18;19.33;;;9.53;;
71975;SDS011;68326;52.124;5.424;2023-11-18T04:13:45;22.23;;;9.55;;
71975;SDS011;68326;52.124;5.424;2023-11-18T04:16:12;22.55;;;10.25;;
71975;SDS011;68326;52.124;5.424;2023-11-18T04:18:42;26.27;;;10.38;;
71975;SDS011;68326;52.124;5.424;2023-11-18T04:21:10;23.02;;;9.05;;
71975;SDS011;68326;52.124;5.424;2023-11-18T04:23:41;22.63;;;9.73;;
71975;SDS011;68326;52.124;5.424;2023-11-18T04:26:09;20.83;;;9.70;;
71975;SDS011;68326;52.124;5.424;2023-11-18T04:28:36;20.13;;;8.80;;
71975;SDS011;68326;52.124;5.424;2023-11-18T04:31:03;20.40;;;9.00;;
71975;SDS011;68326;52.124;5.424;2023-11-18T04:33:31;19.95;;;9.38;;
71975;SDS011;68326;52.124;5.424;2023-11-18T04:35:58;22.47;;;9.90;;
71975;SDS011;68326;52.124;5.424;2023-11-18T04:38:26;20.77;;;9.38;;
71975;SDS011;68326;52.124;5.424;2023-11-18T04:40:52;21.08;;;9.75;;
71975;SDS011;68326;52.124;5.424;2023-11-18T04:43:21;21.30;;;9.65;;
71975;SDS011;68326;52.124;5.424;2023-11-18T04:46:05;20.40;;;9.27;;
71975;SDS011;68326;52.124;5.424;2023-11-18T04:48:32;18.73;;;8.63;;
71975;SDS011;68326;52.124;5.424;2023-11-18T04:50:59;18.83;;;9.68;;
71975;SDS011;68326;52.124;5.424;2023-11-18T04:53:26;21.88;;;8.63;;
71975;SDS011;68326;52.124;5.424;2023-11-18T04:55:53;20.88;;;9.48;;
71975;SDS011;68326;52.124;5.424;2023-11-18T04:58:20;20.88;;;10.13;;
71975;SDS011;68326;52.124;5.424;2023-11-18T05:00:47;21.73;;;9.73;;
71975;SDS011;68326;52.124;5.424;2023-11-18T05:03:15;21.33;;;9.48;;
71975;SDS011;68326;52.124;5.424;2023-11-18T05:05:43;19.60;;;9.88;;
71975;SDS011;68326;52.124;5.424;2023-11-18T05:08:19;19.83;;;9.38;;
71975;SDS011;68326;52.124;5.424;2023-11-18T05:10:47;22.92;;;9.35;;
71975;SDS011;68326;52.124;5.424;2023-11-18T05:13:14;20.47;;;10.00;;
71975;SDS011;68326;52.124;5.424;2023-11-18T05:15:43;23.95;;;9.80;;
71975;SDS011;68326;52.124;5.424;2023-11-18T05:18:12;21.20;;;10.60;;
71975;SDS011;68326;52.124;5.424;2023-11-18T05:20:41;19.90;;;9.32;;
71975;SDS011;68326;52.124;5.424;2023-11-18T05:23:08;27.77;;;10.73;;
71975;SDS011;68326;52.124;5.424;2023-11-18T05:25:41;21.27;;;10.27;;
71975;SDS011;68326;52.124;5.424;2023-11-18T05:28:12;23.42;;;10.20;;
71975;SDS011;68326;52.124;5.424;2023-11-18T05:30:41;19.70;;;9.82;;
71975;SDS011;68326;52.124;5.424;2023-11-18T05:33:09;19.08;;;9.52;;
71975;SDS011;68326;52.124;5.424;2023-11-18T05:35:41;22.08;;;10.90;;
71975;SDS011;68326;52.124;5.424;2023-11-18T05:38:15;24.80;;;9.37;;
71975;SDS011;68326;52.124;5.424;2023-11-18T05:40:45;21.95;;;9.70;;
71975;SDS011;68326;52.124;5.424;2023-11-18T05:43:23;25.25;;;11.00;;
71975;SDS011;68326;52.124;5.424;2023-11-18T05:45:52;22.25;;;10.15;;
71975;SDS011;68326;52.124;5.424;2023-11-18T05:48:37;20.85;;;9.27;;
71975;SDS011;68326;52.124;5.424;2023-11-18T05:51:08;23.43;;;9.57;;
71975;SDS011;68326;52.124;5.424;2023-11-18T05:53:39;22.88;;;9.30;;
71975;SDS011;68326;52.124;5.424;2023-11-18T05:56:07;19.48;;;9.43;;
71975;SDS011;68326;52.124;5.424;2023-11-18T05:58:34;21.55;;;9.07;;
71975;SDS011;68326;52.124;5.424;2023-11-18T06:01:00;22.65;;;8.88;;
71975;SDS011;68326;52.124;5.424;2023-11-18T06:03:28;18.87;;;8.80;;
71975;SDS011;68326;52.124;5.424;2023-11-18T06:05:55;20.85;;;8.95;;
71975;SDS011;68326;52.124;5.424;2023-11-18T06:08:22;18.48;;;8.50;;
71975;SDS011;68326;52.124;5.424;2023-11-18T06:10:49;18.73;;;8.05;;
71975;SDS011;68326;52.124;5.424;2023-11-18T06:13:18;20.00;;;8.63;;
71975;SDS011;68326;52.124;5.424;2023-11-18T06:15:44;19.43;;;8.03;;
71975;SDS011;68326;52.124;5.424;2023-11-18T06:18:10;19.85;;;8.10;;
71975;SDS011;68326;52.124;5.424;2023-11-18T06:20:37;19.23;;;8.63;;
71975;SDS011;68326;52.124;5.424;2023-11-18T06:23:04;17.85;;;8.00;;
71975;SDS011;68326;52.124;5.424;2023-11-18T06:25:31;17.38;;;7.90;;
71975;SDS011;68326;52.124;5.424;2023-11-18T06:27:58;21.20;;;8.00;;
71975;SDS011;68326;52.124;5.424;2023-11-18T06:30:24;18.65;;;8.02;;
71975;SDS011;68326;52.124;5.424;2023-11-18T06:32:52;16.33;;;7.90;;
71975;SDS011;68326;52.124;5.424;2023-11-18T06:35:18;15.85;;;7.20;;
71975;SDS011;68326;52.124;5.424;2023-11-18T06:37:47;17.45;;;7.25;;
71975;SDS011;68326;52.124;5.424;2023-11-18T06:40:14;16.30;;;7.50;;
71975;SDS011;68326;52.124;5.424;2023-11-18T06:42:45;15.00;;;7.47;;
71975;SDS011;68326;52.124;5.424;2023-11-18T06:45:13;22.35;;;7.65;;
71975;SDS011;68326;52.124;5.424;2023-11-18T06:47:41;16.83;;;7.13;;
71975;SDS011;68326;52.124;5.424;2023-11-18T06:50:10;17.17;;;7.18;;
71975;SDS011;68326;52.124;5.424;2023-11-18T06:52:40;15.73;;;7.33;;
71975;SDS011;68326;52.124;5.424;2023-11-18T06:55:14;18.02;;;7.15;;
71975;SDS011;68326;52.124;5.424;2023-11-18T06:57:41;18.98;;;8.05;;
71975;SDS011;68326;52.124;5.424;2023-11-18T07:00:10;18.05;;;7.50;;
71975;SDS011;68326;52.124;5.424;2023-11-18T07:02:40;16.58;;;6.95;;
71975;SDS011;68326;52.124;5.424;2023-11-18T07:05:06;15.00;;;6.83;;
71975;SDS011;68326;52.124;5.424;2023-11-18T07:07:33;18.75;;;7.75;;
71975;SDS011;68326;52.124;5.424;2023-11-18T07:10:00;19.30;;;7.35;;
71975;SDS011;68326;52.124;5.424;2023-11-18T07:12:26;17.17;;;7.07;;
71975;SDS011;68326;52.124;5.424;2023-11-18T07:14:53;17.17;;;7.55;;
71975;SDS011;68326;52.124;5.424;2023-11-18T07:17:20;19.43;;;8.17;;
71975;SDS011;68326;52.124;5.424;2023-11-18T07:19:46;15.55;;;6.88;;
71975;SDS011;68326;52.124;5.424;2023-11-18T07:22:13;15.80;;;7.30;;
71975;SDS011;68326;52.124;5.424;2023-11-18T07:24:40;16.70;;;7.05;;
71975;SDS011;68326;52.124;5.424;2023-11-18T07:27:07;17.42;;;6.82;;
71975;SDS011;68326;52.124;5.424;2023-11-18T07:29:37;17.83;;;7.30;;
71975;SDS011;68326;52.124;5.424;2023-11-18T07:32:03;15.68;;;7.32;;
71975;SDS011;68326;52.124;5.424;2023-11-18T07:34:31;17.25;;;7.60;;
71975;SDS011;68326;52.124;5.424;2023-11-18T07:37:01;17.83;;;7.90;;
71975;SDS011;68326;52.124;5.424;2023-11-18T07:39:28;17.63;;;6.80;;
71975;SDS011;68326;52.124;5.424;2023-11-18T07:42:11;16.70;;;6.90;;
71975;SDS011;68326;52.124;5.424;2023-11-18T07:44:38;16.05;;;7.38;;
71975;SDS011;68326;52.124;5.424;2023-11-18T07:47:07;16.35;;;6.68;;
71975;SDS011;68326;52.124;5.424;2023-11-18T07:49:34;17.98;;;7.10;;
71975;SDS011;68326;52.124;5.424;2023-11-18T07:52:02;19.17;;;7.85;;
71975;SDS011;68326;52.124;5.424;2023-11-18T07:54:29;15.13;;;7.30;;
71975;SDS011;68326;52.124;5.424;2023-11-18T07:56:55;18.95;;;7.65;;
71975;SDS011;68326;52.124;5.424;2023-11-18T07:59:23;17.48;;;8.23;;
71975;SDS011;68326;52.124;5.424;2023-11-18T08:01:50;15.02;;;7.22;;
71975;SDS011;68326;52.124;5.424;2023-11-18T08:04:16;20.33;;;7.50;;
71975;SDS011;68326;52.124;5.424;2023-11-18T08:06:47;22.30;;;8.27;;
71975;SDS011;68326;52.124;5.424;2023-11-18T08:09:14;17.85;;;7.60;;
71975;SDS011;68326;52.124;5.424;2023-11-18T08:11:40;17.45;;;7.93;;
71975;SDS011;68326;52.124;5.424;2023-11-18T08:14:07;18.88;;;7.60;;
71975;SDS011;68326;52.124;5.424;2023-11-18T08:16:34;17.17;;;7.63;;
71975;SDS011;68326;52.124;5.424;2023-11-18T08:19:00;14.40;;;6.87;;
71975;SDS011;68326;52.124;5.424;2023-11-18T08:21:32;13.95;;;6.82;;
71975;SDS011;68326;52.124;5.424;2023-11-18T08:23:59;17.02;;;6.72;;
71975;SDS011;68326;52.124;5.424;2023-11-18T08:26:26;18.17;;;7.13;;
71975;SDS011;68326;52.124;5.424;2023-11-18T08:28:53;13.98;;;7.00;;
71975;SDS011;68326;52.124;5.424;2023-11-18T08:31:19;15.20;;;6.57;;
71975;SDS011;68326;52.124;5.424;2023-11-18T08:33:47;13.75;;;6.35;;
71975;SDS011;68326;52.124;5.424;2023-11-18T08:36:13;12.02;;;6.53;;
71975;SDS011;68326;52.124;5.424;2023-11-18T08:38:40;11.80;;;5.90;;
71975;SDS011;68326;52.124;5.424;2023-11-18T08:41:10;14.18;;;6.20;;
71975;SDS011;68326;52.124;5.424;2023-11-18T08:43:37;10.40;;;5.70;;
71975;SDS011;68326;52.124;5.424;2023-11-18T08:46:07;14.35;;;6.03;;
71975;SDS011;68326;52.124;5.424;2023-11-18T08:48:33;9.98;;;5.30;;
71975;SDS011;68326;52.124;5.424;2023-11-18T08:51:00;14.68;;;5.60;;
71975;SDS011;68326;52.124;5.424;2023-11-18T08:53:27;12.25;;;5.60;;
71975;SDS011;68326;52.124;5.424;2023-11-18T08:55:54;10.57;;;5.60;;
71975;SDS011;68326;52.124;5.424;2023-11-18T08:58:21;10.52;;;5.32;;
71975;SDS011;68326;52.124;5.424;2023-11-18T09:00:49;11.32;;;5.90;;
71975;SDS011;68326;52.124;5.424;2023-11-18T09:03:22;11.77;;;5.60;;
71975;SDS011;68326;52.124;5.424;2023-11-18T09:06:05;11.57;;;5.93;;
71975;SDS011;68326;52.124;5.424;2023-11-18T09:08:44;10.07;;;4.40;;
71975;SDS011;68326;52.124;5.424;2023-11-18T09:11:12;13.05;;;4.90;;
71975;SDS011;68326;52.124;5.424;2023-11-18T09:13:47;9.80;;;4.45;;
71975;SDS011;68326;52.124;5.424;2023-11-18T09:16:15;10.07;;;4.45;;
71975;SDS011;68326;52.124;5.424;2023-11-18T09:18:43;11.57;;;4.93;;
71975;SDS011;68326;52.124;5.424;2023-11-18T09:21:13;7.80;;;4.17;;
71975;SDS011;68326;52.124;5.424;2023-11-18T09:23:45;10.55;;;4.43;;
71975;SDS011;68326;52.124;5.424;2023-11-18T09:26:14;8.93;;;4.55;;
71975;SDS011;68326;52.124;5.424;2023-11-18T09:28:41;12.15;;;4.78;;
71975;SDS011;68326;52.124;5.424;2023-11-18T09:31:08;11.05;;;4.25;;
71975;SDS011;68326;52.124;5.424;2023-11-18T09:33:39;8.17;;;4.23;;
71975;SDS011;68326;52.124;5.424;2023-11-18T09:36:11;7.88;;;4.40;;
71975;SDS011;68326;52.124;5.424;2023-11-18T09:38:39;9.65;;;4.68;;
71975;SDS011;68326;52.124;5.424;2023-11-18T09:41:12;10.23;;;4.57;;
71975;SDS011;68326;52.124;5.424;2023-11-18T09:43:43;10.38;;;4.35;;
71975;SDS011;68326;52.124;5.424;2023-11-18T09:46:14;13.83;;;4.57;;
71975;SDS011;68326;52.124;5.424;2023-11-18T09:48:43;9.27;;;4.70;;
71975;SDS011;68326;52.124;5.424;2023-11-18T09:51:19;10.32;;;4.03;;
71975;SDS011;68326;52.124;5.424;2023-11-18T09:53:48;10.73;;;4.18;;
71975;SDS011;68326;52.124;5.424;2023-11-18T09:59:06;9.10;;;3.87;;
71975;SDS011;68326;52.124;5.424;2023-11-18T10:01:43;7.97;;;3.75;;
71975;SDS011;68326;52.124;5.424;2023-11-18T10:04:13;9.50;;;3.95;;
71975;SDS011;68326;52.124;5.424;2023-11-18T10:06:44;9.30;;;4.10;;
71975;SDS011;68326;52.124;5.424;2023-11-18T10:09:13;10.70;;;4.18;;
71975;SDS011;68326;52.124;5.424;2023-11-18T10:11:44;7.50;;;3.70;;
71975;SDS011;68326;52.124;5.424;2023-11-18T10:14:16;8.20;;;3.83;;
71975;SDS011;68326;52.124;5.424;2023-11-18T10:16:43;11.68;;;4.00;;
71975;SDS011;68326;52.124;5.424;2023-11-18T10:19:14;9.05;;;4.00;;
71975;SDS011;68326;52.124;5.424;2023-11-18T10:21:44;8.90;;;3.85;;
71975;SDS011;68326;52.124;5.424;2023-11-18T10:24:14;10.43;;;3.73;;
71975;SDS011;68326;52.124;5.424;2023-11-18T10:26:45;9.23;;;3.80;;
71975;SDS011;68326;52.124;5.424;2023-11-18T10:29:20;9.27;;;3.78;;
71975;SDS011;68326;52.124;5.424;2023-11-18T10:31:47;8.63;;;3.65;;
71975;SDS011;68326;52.124;5.424;2023-11-18T10:34:14;11.82;;;3.70;;
71975;SDS011;68326;52.124;5.424;2023-11-18T10:36:42;8.43;;;3.90;;
71975;SDS011;68326;52.124;5.424;2023-11-18T10:39:29;9.05;;;3.45;;
71975;SDS011;68326;52.124;5.424;2023-11-18T10:42:02;9.50;;;3.83;;
71975;SDS011;68326;52.124;5.424;2023-11-18T10:44:29;9.13;;;3.25;;
71975;SDS011;68326;52.124;5.424;2023-11-18T10:46:56;9.43;;;3.83;;
71975;SDS011;68326;52.124;5.424;2023-11-18T10:49:28;8.17;;;3.53;;
71975;SDS011;68326;52.124;5.424;2023-11-18T10:51:55;7.22;;;2.92;;
71975;SDS011;68326;52.124;5.424;2023-11-18T10:54:30;6.95;;;2.88;;
71975;SDS011;68326;52.124;5.424;2023-11-18T10:56:58;8.63;;;3.45;;
71975;SDS011;68326;52.124;5.424;2023-11-18T10:59:33;8.55;;;3.40;;
71975;SDS011;68326;52.124;5.424;2023-11-18T11:01:59;8.70;;;3.43;;
71975;SDS011;68326;52.124;5.424;2023-11-18T11:04:27;7.93;;;3.30;;
71975;SDS011;68326;52.124;5.424;2023-11-18T11:07:09;9.05;;;3.33;;
71975;SDS011;68326;52.124;5.424;2023-11-18T11:09:37;9.65;;;3.30;;
71975;SDS011;68326;52.124;5.424;2023-11-18T11:12:10;8.38;;;3.28;;
71975;SDS011;68326;52.124;5.424;2023-11-18T11:14:46;8.47;;;3.13;;
71975;SDS011;68326;52.124;5.424;2023-11-18T11:17:20;7.65;;;3.40;;
71975;SDS011;68326;52.124;5.424;2023-11-18T11:22:26;6.47;;;2.70;;
71975;SDS011;68326;52.124;5.424;2023-11-18T11:27:55;6.43;;;2.27;;
71975;SDS011;68326;52.124;5.424;2023-11-18T11:30:28;4.45;;;2.30;;
71975;SDS011;68326;52.124;5.424;2023-11-18T11:33:59;7.95;;;3.22;;
71975;SDS011;68326;52.124;5.424;2023-11-18T11:36:12;6.93;;;2.85;;
71975;SDS011;68326;52.124;5.424;2023-11-18T11:38:43;6.53;;;3.10;;
71975;SDS011;68326;52.124;5.424;2023-11-18T11:41:13;6.53;;;3.00;;
71975;SDS011;68326;52.124;5.424;2023-11-18T11:43:46;5.45;;;2.47;;
71975;SDS011;68326;52.124;5.424;2023-11-18T11:46:15;9.40;;;2.58;;
71975;SDS011;68326;52.124;5.424;2023-11-18T11:48:49;5.63;;;2.15;;
71975;SDS011;68326;52.124;5.424;2023-11-18T11:51:24;9.85;;;2.97;;
71975;SDS011;68326;52.124;5.424;2023-11-18T11:54:12;4.90;;;2.50;;
71975;SDS011;68326;52.124;5.424;2023-11-18T11:56:45;6.28;;;2.60;;
71975;SDS011;68326;52.124;5.424;2023-11-18T12:02:20;7.65;;;2.15;;
71975;SDS011;68326;52.124;5.424;2023-11-18T12:04:55;7.45;;;2.83;;
71975;SDS011;68326;52.124;5.424;2023-11-18T12:07:25;5.27;;;2.63;;
71975;SDS011;68326;52.124;5.424;2023-11-18T12:09:56;4.45;;;1.92;;
71975;SDS011;68326;52.124;5.424;2023-11-18T12:12:24;4.63;;;1.90;;
71975;SDS011;68326;52.124;5.424;2023-11-18T12:14:57;5.18;;;2.20;;
71975;SDS011;68326;52.124;5.424;2023-11-18T12:23:09;3.25;;;1.88;;
71975;SDS011;68326;52.124;5.424;2023-11-18T12:25:42;5.43;;;1.67;;
71975;SDS011;68326;52.124;5.424;2023-11-18T12:28:09;4.45;;;1.38;;
71975;SDS011;68326;52.124;5.424;2023-11-18T12:30:37;5.68;;;1.50;;
71975;SDS011;68326;52.124;5.424;2023-11-18T12:33:07;4.23;;;2.10;;
71975;SDS011;68326;52.124;5.424;2023-11-18T12:42:01;6.05;;;1.50;;
71975;SDS011;68326;52.124;5.424;2023-11-18T12:46:53;5.47;;;1.37;;
71975;SDS011;68326;52.124;5.424;2023-11-18T12:49:41;3.72;;;1.50;;
71975;SDS011;68326;52.124;5.424;2023-11-18T12:52:09;4.93;;;1.25;;
71975;SDS011;68326;52.124;5.424;2023-11-18T12:54:37;4.78;;;1.10;;
71975;SDS011;68326;52.124;5.424;2023-11-18T12:57:04;3.47;;;1.30;;
71975;SDS011;68326;52.124;5.424;2023-11-18T12:59:36;3.83;;;1.03;;
71975;SDS011;68326;52.124;5.424;2023-11-18T13:02:07;2.90;;;0.93;;
71975;SDS011;68326;52.124;5.424;2023-11-18T13:04:34;3.67;;;1.38;;
71975;SDS011;68326;52.124;5.424;2023-11-18T13:07:01;4.72;;;1.27;;
71975;SDS011;68326;52.124;5.424;2023-11-18T13:09:29;1.98;;;0.95;;
71975;SDS011;68326;52.124;5.424;2023-11-18T13:11:59;5.20;;;1.20;;
71975;SDS011;68326;52.124;5.424;2023-11-18T13:14:34;6.00;;;1.25;;
71975;SDS011;68326;52.124;5.424;2023-11-18T13:17:03;4.00;;;1.00;;
71975;SDS011;68326;52.124;5.424;2023-11-18T13:19:35;4.57;;;1.35;;
71975;SDS011;68326;52.124;5.424;2023-11-18T13:22:02;3.53;;;1.10;;
71975;SDS011;68326;52.124;5.424;2023-11-18T13:24:39;2.90;;;1.00;;
71975;SDS011;68326;52.124;5.424;2023-11-18T13:27:07;4.60;;;1.10;;
71975;SDS011;68326;52.124;5.424;2023-11-18T13:29:35;3.20;;;0.80;;
71975;SDS011;68326;52.124;5.424;2023-11-18T13:32:06;1.88;;;1.00;;
71975;SDS011;68326;52.124;5.424;2023-11-18T13:34:33;4.05;;;1.05;;
71975;SDS011;68326;52.124;5.424;2023-11-18T13:37:01;1.67;;;0.80;;
71975;SDS011;68326;52.124;5.424;2023-11-18T13:39:29;1.60;;;0.63;;
71975;SDS011;68326;52.124;5.424;2023-11-18T13:41:57;1.70;;;0.90;;
71975;SDS011;68326;52.124;5.424;2023-11-18T13:44:33;2.00;;;0.80;;
71975;SDS011;68326;52.124;5.424;2023-11-18T13:47:05;2.95;;;0.75;;
71975;SDS011;68326;52.124;5.424;2023-11-18T13:49:32;1.70;;;0.57;;
71975;SDS011;68326;52.124;5.424;2023-11-18T13:52:00;2.38;;;0.70;;
71975;SDS011;68326;52.124;5.424;2023-11-18T13:54:28;2.78;;;0.65;;
71975;SDS011;68326;52.124;5.424;2023-11-18T13:57:01;2.38;;;0.55;;
71975;SDS011;68326;52.124;5.424;2023-11-18T13:59:32;2.63;;;0.57;;
71975;SDS011;68326;52.124;5.424;2023-11-18T14:01:58;1.40;;;0.40;;
71975;SDS011;68326;52.124;5.424;2023-11-18T14:04:28;2.22;;;0.50;;
71975;SDS011;68326;52.124;5.424;2023-11-18T14:07:00;3.10;;;0.65;;
71975;SDS011;68326;52.124;5.424;2023-11-18T14:09:35;2.38;;;0.63;;
71975;SDS011;68326;52.124;5.424;2023-11-18T14:12:06;1.33;;;0.50;;
71975;SDS011;68326;52.124;5.424;2023-11-18T14:14:34;1.50;;;0.40;;
71975;SDS011;68326;52.124;5.424;2023-11-18T14:17:01;0.98;;;0.40;;
71975;SDS011;68326;52.124;5.424;2023-11-18T14:19:28;1.08;;;0.30;;
71975;SDS011;68326;52.124;5.424;2023-11-18T14:21:55;1.65;;;0.40;;
71975;SDS011;68326;52.124;5.424;2023-11-18T14:24:22;1.20;;;0.35;;
71975;SDS011;68326;52.124;5.424;2023-11-18T14:26:49;1.43;;;0.33;;
71975;SDS011;68326;52.124;5.424;2023-11-18T14:29:16;1.10;;;0.30;;
71975;SDS011;68326;52.124;5.424;2023-11-18T14:31:43;1.00;;;0.30;;
71975;SDS011;68326;52.124;5.424;2023-11-18T14:34:11;0.95;;;0.40;;
71975;SDS011;68326;52.124;5.424;2023-11-18T14:36:37;0.80;;;0.20;;
71975;SDS011;68326;52.124;5.424;2023-11-18T14:39:04;1.27;;;0.20;;
71975;SDS011;68326;52.124;5.424;2023-11-18T14:41:31;2.05;;;0.30;;
71975;SDS011;68326;52.124;5.424;2023-11-18T14:43:58;0.70;;;0.30;;
71975;SDS011;68326;52.124;5.424;2023-11-18T14:46:24;0.90;;;0.30;;
71975;SDS011;68326;52.124;5.424;2023-11-18T14:48:51;1.77;;;0.50;;
71975;SDS011;68326;52.124;5.424;2023-11-18T14:51:18;1.67;;;0.20;;
71975;SDS011;68326;52.124;5.424;2023-11-18T14:53:44;1.85;;;0.20;;
71975;SDS011;68326;52.124;5.424;2023-11-18T14:56:10;2.38;;;0.30;;
71975;SDS011;68326;52.124;5.424;2023-11-18T14:58:37;1.00;;;0.30;;
71975;SDS011;68326;52.124;5.424;2023-11-18T15:01:04;1.00;;;0.20;;
71975;SDS011;68326;52.124;5.424;2023-11-18T15:03:33;0.67;;;0.20;;
71975;SDS011;68326;52.124;5.424;2023-11-18T15:06:01;1.35;;;0.30;;
71975;SDS011;68326;52.124;5.424;2023-11-18T15:08:28;0.63;;;0.30;;
71975;SDS011;68326;52.124;5.424;2023-11-18T15:10:57;0.85;;;0.30;;
71975;SDS011;68326;52.124;5.424;2023-11-18T15:13:27;1.02;;;0.70;;
71975;SDS011;68326;52.124;5.424;2023-11-18T15:15:53;0.90;;;0.30;;
71975;SDS011;68326;52.124;5.424;2023-11-18T15:18:21;0.88;;;0.20;;